Time;durP1;ratioP1;P1;durP2;ratioP2;P2;SDS_P1;SDS_P2;PMS_P1;PMS_P2;Temp;Humidity;BMP_temperature;BMP_pressure;BME280_temperature;BME280_humidity;BME280_pressure;Samples;Min_cycle;Max_cycle;Signal;HPM_P1;HPM_P2
2024/01/31 00:02:20;;;;;;;;;;;;;;;26.84;33.67;95757.72;5039042;28;7361;-37
2024/01/31 00:04:47;;;;;;;;;;;;;;;26.84;34.13;95754.97;5054019;28;9294;-37
2024/01/31 00:07:14;;;;;;;;;;;;;;;26.84;34.53;95760.50;5046275;28;7374;-37
2024/01/31 00:09:46;;;;;;;;;;;;;;;26.84;34.57;95757.72;5056451;28;8679;-37
2024/01/31 00:12:16;;;;;;;;;;;;;;;26.84;33.92;95749.44;5070025;28;7047;-56
2024/01/31 00:14:52;;;;;;;;;;;;;;;26.84;33.85;95755.72;5056002;28;9522;-57
2024/01/31 00:17:39;;;;;;;;;;;;;;;26.84;34.42;95749.44;5061304;28;9072;-56
2024/01/31 00:20:05;;;;;;;;;;;;;;;26.82;34.36;95747.19;5047305;28;7262;-57
2024/01/31 00:22:31;;;;;;;;;;;;;;;26.83;34.04;95745.19;5059921;28;7003;-58
2024/01/31 00:24:57;;;;;;;;;;;;;;;26.81;34.51;95739.38;5076272;28;9234;-57
2024/01/31 00:27:26;;;;;;;;;;;;;;;26.82;34.56;95735.38;5066033;28;7243;-57
2024/01/31 00:29:52;;;;;;;;;;;;;;;26.82;34.55;95735.38;5068466;28;9580;-58
2024/01/31 00:32:27;;;;;;;;;;;;;;;26.83;34.07;95737.66;5055101;28;6957;-57
2024/01/31 00:34:55;;;;;;;;;;;;;;;26.82;34.31;95733.38;5071990;28;7225;-57
2024/01/31 00:37:22;;;;;;;;;;;;;;;26.81;34.07;95728.34;5091020;28;6988;-57
2024/01/31 00:39:50;;;;;;;;;;;;;;;26.81;34.59;95731.88;5071779;28;7186;-57
2024/01/31 00:42:17;;;;;;;;;;;;;;;26.81;34.52;95731.09;5054372;28;7836;-57
2024/01/31 00:44:45;;;;;;;;;;;;;;;26.81;34.38;95734.63;5054090;28;7285;-58
2024/01/31 00:47:18;;;;;;;;;;;;;;;26.81;34.39;95722.81;5056171;28;8912;-57
2024/01/31 00:49:48;;;;;;;;;;;;;;;26.79;34.32;95725.31;5050403;28;7166;-57
2024/01/31 00:52:33;;;;;;;;;;;;;;;26.82;34.64;95727.84;5059401;28;7302;-58
2024/01/31 00:55:06;;;;;;;;;;;;;;;26.80;34.62;95721.31;5042028;28;9031;-57
2024/01/31 00:57:42;;;;;;;;;;;;;;;26.82;34.58;95730.63;5059476;28;8687;-57
2024/01/31 01:00:21;;;;;;;;;;;;;;;26.80;34.31;95727.59;5064307;28;9097;-57
2024/01/31 01:02:47;;;;;;;;;;;;;;;26.79;34.62;95730.84;5038440;28;7250;-57
2024/01/31 01:05:37;;;;;;;;;;;;;;;26.81;34.94;95731.09;5053913;28;7231;-57
2024/01/31 01:08:14;;;;;;;;;;;;;;;26.79;34.65;95725.31;5093905;28;9070;-57
2024/01/31 01:10:40;;;;;;;;;;;;;;;26.77;34.60;95728.56;5068485;28;8502;-57
2024/01/31 01:13:15;;;;;;;;;;;;;;;26.79;34.40;95731.59;5068974;28;7271;-58
2024/01/31 01:15:50;;;;;;;;;;;;;;;26.81;35.05;95744.91;5053040;28;7243;-58
2024/01/31 01:18:45;;;;;;;;;;;;;;;26.82;34.48;95746.41;5056983;28;8998;-57
2024/01/31 01:21:11;;;;;;;;;;;;;;;26.81;34.59;95739.38;4987604;28;7246;-57
2024/01/31 01:23:38;;;;;;;;;;;;;;;26.81;34.77;95744.91;4998617;28;9081;-57
2024/01/31 01:26:04;;;;;;;;;;;;;;;26.81;34.38;95744.91;4995315;28;8834;-57
2024/01/31 01:28:31;;;;;;;;;;;;;;;26.79;34.39;95742.66;4978289;28;7632;-57
2024/01/31 01:31:32;;;;;;;;;;;;;;;26.79;34.62;95748.16;5002625;28;8736;-44
2024/01/31 01:34:11;;;;;;;;;;;;;;;26.80;34.54;95746.16;4975418;28;7262;-43
2024/01/31 01:36:36;;;;;;;;;;;;;;;26.79;35.02;95733.59;5004166;28;7206;-42
2024/01/31 01:39:03;;;;;;;;;;;;;;;26.77;34.83;95739.59;4980677;28;9357;-43
2024/01/31 01:41:59;;;;;;;;;;;;;;;26.79;34.82;95739.88;4977081;28;7126;-44
2024/01/31 01:44:46;;;;;;;;;;;;;;;26.78;35.04;95738.34;4965290;28;9081;-43
2024/01/31 01:47:26;;;;;;;;;;;;;;;26.78;34.43;95740.34;4970693;28;7264;-42
2024/01/31 01:50:18;;;;;;;;;;;;;;;26.78;34.97;95737.59;4959186;28;8774;-45
2024/01/31 01:52:53;;;;;;;;;;;;;;;26.77;34.98;95738.84;4974459;28;8298;-42
2024/01/31 01:55:38;;;;;;;;;;;;;;;26.78;34.95;95730.06;4957347;28;7259;-45
2024/01/31 01:58:24;;;;;;;;;;;;;;;26.78;34.63;95726.56;4993298;28;7339;-42
2024/01/31 02:00:51;;;;;;;;;;;;;;;26.78;34.89;95723.78;5005294;28;7061;-43
2024/01/31 02:03:29;;;;;;;;;;;;;;;26.76;35.13;95726.28;4997730;28;6988;-43
2024/01/31 02:06:04;;;;;;;;;;;;;;;26.75;34.41;95724.78;4997337;28;7599;-42
2024/01/31 02:08:32;;;;;;;;;;;;;;;26.75;34.65;95727.53;4992440;28;7321;-42
2024/01/31 02:10:59;;;;;;;;;;;;;;;26.73;34.92;95727.28;5017562;28;9041;-43
2024/01/31 02:13:25;;;;;;;;;;;;;;;26.73;35.07;95730.03;5017206;28;8746;-43
2024/01/31 02:15:51;;;;;;;;;;;;;;;26.74;34.74;95731.53;5017073;28;8724;-44
2024/01/31 02:18:39;;;;;;;;;;;;;;;26.73;34.64;95727.28;5010866;28;7259;-45
2024/01/31 02:21:05;;;;;;;;;;;;;;;26.73;35.25;95727.28;5038394;28;7058;-43
2024/01/31 02:23:31;;;;;;;;;;;;;;;26.71;34.88;95733.22;5053696;28;7032;-43
2024/01/31 02:25:57;;;;;;;;;;;;;;;26.73;34.91;95732.78;5048258;28;7834;-42
2024/01/31 02:28:22;;;;;;;;;;;;;;;26.71;34.49;95730.47;5054597;28;6979;-42
2024/01/31 02:31:10;;;;;;;;;;;;;;;26.71;34.95;95727.72;5064806;28;8720;-42
2024/01/31 02:33:39;;;;;;;;;;;;;;;26.72;35.00;95729.25;5048799;28;7077;-43
2024/01/31 02:36:23;;;;;;;;;;;;;;;26.71;35.07;95726.94;5074189;28;7172;-42
2024/01/31 02:38:51;;;;;;;;;;;;;;;26.71;34.85;95727.72;5074266;28;7282;-42
2024/01/31 02:41:18;;;;;;;;;;;;;;;26.72;34.98;95731.22;5052541;28;8745;-37
2024/01/31 02:43:59;;;;;;;;;;;;;;;26.72;34.92;95731.22;5052003;28;8836;-38
2024/01/31 02:46:38;;;;;;;;;;;;;;;26.70;35.30;95719.94;5053672;28;7609;-37
2024/01/31 02:49:10;;;;;;;;;;;;;;;26.71;35.03;95718.66;5064741;28;6978;-37
2024/01/31 02:51:38;;;;;;;;;;;;;;;26.71;35.39;95726.94;5051884;28;9294;-37
2024/01/31 02:54:12;;;;;;;;;;;;;;;26.67;35.16;95724.41;5037044;28;7395;-38
2024/01/31 02:56:57;;;;;;;;;;;;;;;26.70;35.15;95728.97;5037104;28;7441;-38
2024/01/31 02:59:43;;;;;;;;;;;;;;;26.70;34.94;95723.44;5036937;28;8036;-38
2024/01/31 03:02:42;;;;;;;;;;;;;;;26.70;35.33;95731.72;5034863;28;7248;-38
2024/01/31 03:05:11;;;;;;;;;;;;;;;26.67;35.52;95724.41;5036532;28;9132;-38
2024/01/31 03:07:41;;;;;;;;;;;;;;;26.65;35.42;95726.13;5063265;28;7199;-38
2024/01/31 03:10:10;;;;;;;;;;;;;;;26.67;34.97;95727.16;5039863;28;7318;-37
2024/01/31 03:12:51;;;;;;;;;;;;;;;26.68;35.08;95728.69;5065860;28;9161;-38
2024/01/31 03:15:45;;;;;;;;;;;;;;;26.68;34.97;95722.41;5061686;28;7103;-38
2024/01/31 03:18:13;;;;;;;;;;;;;;;26.67;34.87;95718.88;5036098;28;9028;-38
2024/01/31 03:20:55;;;;;;;;;;;;;;;26.67;35.33;95718.13;5036469;28;7118;-37
2024/01/31 03:23:21;;;;;;;;;;;;;;;26.66;35.27;95722.91;5049332;28;7279;-37
2024/01/31 03:25:47;;;;;;;;;;;;;;;26.65;35.38;95726.13;5058650;28;6979;-37
2024/01/31 03:28:13;;;;;;;;;;;;;;;26.64;35.44;95722.59;5060531;28;7058;-38
2024/01/31 03:30:40;;;;;;;;;;;;;;;26.65;35.29;95723.38;5047904;28;7252;-38
2024/01/31 03:33:05;;;;;;;;;;;;;;;26.62;34.94;95725.09;5043513;28;7746;-38
2024/01/31 03:35:34;;;;;;;;;;;;;;;26.64;35.30;95725.38;5068275;28;9432;-38
2024/01/31 03:38:12;;;;;;;;;;;;;;;26.67;34.95;95729.16;5052791;28;7213;-38
2024/01/31 03:40:45;;;;;;;;;;;;;;;26.64;35.52;95719.84;5054576;28;7067;-38
2024/01/31 03:43:11;;;;;;;;;;;;;;;26.62;35.51;95727.13;5056408;28;7460;-37
2024/01/31 03:45:46;;;;;;;;;;;;;;;26.64;35.69;95721.88;5050914;28;8736;-37
2024/01/31 03:48:12;;;;;;;;;;;;;;;26.66;35.74;95719.38;5036890;28;8728;-38
2024/01/31 03:50:41;;;;;;;;;;;;;;;26.65;35.30;95726.13;5043658;28;7213;-37
2024/01/31 03:53:07;;;;;;;;;;;;;;;26.65;35.18;95712.34;5052980;28;7047;-37
2024/01/31 03:55:35;;;;;;;;;;;;;;;26.61;35.17;95709.81;5041263;28;6996;-37
2024/01/31 03:58:17;;;;;;;;;;;;;;;26.64;35.52;95724.63;5068299;28;8847;-37
2024/01/31 04:01:29;;;;;;;;;;;;;;;26.63;35.33;95725.88;5046569;28;7198;-37
2024/01/31 04:04:05;;;;;;;;;;;;;;;26.65;35.49;95728.91;4995645;28;7104;-37
2024/01/31 04:07:03;;;;;;;;;;;;;;;26.64;35.30;95730.16;4996105;28;8209;-37
2024/01/31 04:09:38;;;;;;;;;;;;;;;26.62;35.63;95727.84;5004441;28;8932;-37
2024/01/31 04:12:14;;;;;;;;;;;;;;;26.63;35.25;95731.38;5011803;28;7618;-37
2024/01/31 04:14:58;;;;;;;;;;;;;;;26.63;35.33;95734.16;5015819;28;8829;-37
2024/01/31 04:17:30;;;;;;;;;;;;;;;26.62;34.83;95740.91;5017804;28;7250;-37
2024/01/31 04:20:08;;;;;;;;;;;;;;;26.61;35.82;95737.41;5014150;28;7262;-37
2024/01/31 04:22:34;;;;;;;;;;;;;;;26.65;35.10;95734.41;5014618;28;7427;-37
2024/01/31 04:25:00;;;;;;;;;;;;;;;26.61;35.60;95736.63;5015404;28;9021;-37
2024/01/31 04:27:26;;;;;;;;;;;;;;;26.61;35.55;95742.91;5030860;28;8918;-37
2024/01/31 04:29:54;;;;;;;;;;;;;;;26.63;35.69;95739.66;5014276;28;7230;-37
2024/01/31 04:32:32;;;;;;;;;;;;;;;26.60;35.31;95735.88;5030492;28;7268;-37
2024/01/31 04:34:59;;;;;;;;;;;;;;;26.62;34.90;95741.66;5023486;28;9456;-37
2024/01/31 04:37:59;;;;;;;;;;;;;;;26.62;35.42;95749.94;5029099;28;9092;-37
2024/01/31 04:40:27;;;;;;;;;;;;;;;26.62;34.71;95743.69;4971036;28;8997;-37
2024/01/31 04:42:54;;;;;;;;;;;;;;;26.60;35.48;95735.13;4995036;28;7190;-37
2024/01/31 04:45:22;;;;;;;;;;;;;;;26.64;35.27;95735.66;4993537;28;7235;-37
2024/01/31 04:47:48;;;;;;;;;;;;;;;26.61;34.98;95744.91;4988233;28;7280;-37
2024/01/31 04:50:14;;;;;;;;;;;;;;;26.64;35.80;95746.72;4956162;28;7014;-37
2024/01/31 04:52:40;;;;;;;;;;;;;;;26.61;35.33;95740.16;4974104;28;7284;-37
2024/01/31 04:55:07;;;;;;;;;;;;;;;26.61;35.52;95742.16;4976931;28;6967;-37
2024/01/31 04:57:37;;;;;;;;;;;;;;;26.60;35.62;95737.91;4998692;28;9116;-37
2024/01/31 05:00:04;;;;;;;;;;;;;;;26.61;35.07;95731.13;4991719;28;7241;-37
2024/01/31 05:02:33;;;;;;;;;;;;;;;26.61;35.67;95733.88;4980338;28;7072;-37
2024/01/31 05:05:01;;;;;;;;;;;;;;;26.62;35.42;95740.91;4995312;28;7021;-37
2024/01/31 05:07:36;;;;;;;;;;;;;;;26.58;35.09;95738.34;4989307;28;8739;-37
2024/01/31 05:10:03;;;;;;;;;;;;;;;26.58;35.84;95738.34;4997934;28;7331;-37
2024/01/31 05:12:39;;;;;;;;;;;;;;;26.56;35.45;95732.56;5002823;28;6965;-37
2024/01/31 05:15:07;;;;;;;;;;;;;;;26.59;35.13;95739.13;4984718;28;9217;-38
2024/01/31 05:17:40;;;;;;;;;;;;;;;26.60;35.19;95743.41;5068088;28;9122;-37
2024/01/31 05:20:16;;;;;;;;;;;;;;;26.60;35.38;95741.38;5076022;28;7433;-38
2024/01/31 05:22:42;;;;;;;;;;;;;;;26.59;35.25;95742.66;5046285;28;7120;-37
2024/01/31 05:25:08;;;;;;;;;;;;;;;26.59;35.51;95750.94;5042984;28;9422;-37
2024/01/31 05:27:36;;;;;;;;;;;;;;;26.58;35.76;95743.13;5049207;28;6969;-37
2024/01/31 05:30:06;;;;;;;;;;;;;;;26.60;35.56;95743.41;5061189;28;7237;-37
2024/01/31 05:32:45;;;;;;;;;;;;;;;26.56;36.04;95742.84;5058529;28;7066;-37
2024/01/31 05:35:13;;;;;;;;;;;;;;;26.56;35.98;95742.84;5062730;28;7087;-37
2024/01/31 05:37:41;;;;;;;;;;;;;;;26.57;35.47;95741.63;5047402;28;9436;-37
2024/01/31 05:40:27;;;;;;;;;;;;;;;26.58;35.99;95743.13;5083614;28;7067;-37
2024/01/31 05:43:06;;;;;;;;;;;;;;;26.58;35.95;95746.63;5044654;28;7405;-37
2024/01/31 05:46:28;;;;;;;;;;;;;;;26.57;36.30;95755.41;5075893;28;8727;-37
2024/01/31 05:49:21;;;;;;;;;;;;;;;26.54;36.01;95759.13;4993783;28;6856;-37
2024/01/31 05:52:03;;;;;;;;;;;;;;;26.54;35.63;95756.38;4998348;28;7247;-37
2024/01/31 05:54:31;;;;;;;;;;;;;;;26.51;36.12;95749.06;5002020;28;7239;-38
2024/01/31 05:57:06;;;;;;;;;;;;;;;26.52;36.47;95756.09;4990947;28;7249;-37
2024/01/31 05:59:32;;;;;;;;;;;;;;;26.47;36.49;95751.28;5008175;28;7249;-37
2024/01/31 06:02:08;;;;;;;;;;;;;;;26.43;36.94;95756.22;5009090;28;7148;-43
2024/01/31 06:05:01;;;;;;;;;;;;;;;26.40;36.76;95755.22;4998279;28;9125;-44
2024/01/31 06:07:36;;;;;;;;;;;;;;;26.41;37.23;95756.72;5012455;28;8789;-43
2024/01/31 06:10:10;;;;;;;;;;;;;;;26.47;36.84;95762.31;5032604;28;9142;-43
2024/01/31 06:12:46;;;;;;;;;;;;;;;26.47;36.68;95762.31;5017077;28;9113;-44
2024/01/31 06:15:13;;;;;;;;;;;;;;;26.45;36.34;95767.53;5009113;28;9107;-42
2024/01/31 06:17:41;;;;;;;;;;;;;;;26.42;36.83;95763.00;5017928;28;7265;-43
2024/01/31 06:20:07;;;;;;;;;;;;;;;26.45;36.73;95765.53;5034632;28;7206;-44
2024/01/31 06:22:33;;;;;;;;;;;;;;;26.48;36.69;95766.59;5031558;28;8349;-43
2024/01/31 06:24:59;;;;;;;;;;;;;;;26.54;37.00;95753.59;5057920;28;7006;-42
2024/01/31 06:27:25;;;;;;;;;;;;;;;26.57;37.04;95764.44;5052905;28;8195;-43
2024/01/31 06:29:51;;;;;;;;;;;;;;;26.53;36.74;95752.09;5055864;28;8461;-42
2024/01/31 06:32:54;;;;;;;;;;;;;;;26.57;36.31;95763.69;5062636;28;7340;-45
2024/01/31 06:35:40;;;;;;;;;;;;;;;26.56;37.07;95764.91;5029238;28;7197;-46
2024/01/31 06:38:36;;;;;;;;;;;;;;;26.55;36.67;95771.69;5011301;28;8288;-42
2024/01/31 06:41:38;;;;;;;;;;;;;;;26.55;37.01;95772.47;5028213;28;8830;-42
2024/01/31 06:44:05;;;;;;;;;;;;;;;26.53;36.87;95780.47;4950710;28;7081;-43
2024/01/31 06:46:31;;;;;;;;;;;;;;;26.54;36.54;95781.19;4951038;28;7143;-43
2024/01/31 06:49:07;;;;;;;;;;;;;;;26.56;37.03;95784.22;4956158;28;9367;-42
2024/01/31 06:52:10;;;;;;;;;;;;;;;26.56;36.36;95792.50;4950144;28;7282;-42
2024/01/31 06:54:45;;;;;;;;;;;;;;;26.51;37.08;95787.69;4961962;28;7550;-42
2024/01/31 06:57:21;;;;;;;;;;;;;;;26.53;37.06;95785.22;4972693;28;7259;-42
2024/01/31 06:59:48;;;;;;;;;;;;;;;26.52;36.97;95797.47;4959717;28;7090;-42
2024/01/31 07:02:17;;;;;;;;;;;;;;;26.44;37.25;95793.63;4975443;28;7248;-42
2024/01/31 07:04:53;;;;;;;;;;;;;;;26.48;36.87;95794.19;4954784;28;7029;-43
2024/01/31 07:07:19;;;;;;;;;;;;;;;26.50;37.05;95797.22;4968920;28;7004;-43
2024/01/31 07:10:05;;;;;;;;;;;;;;;26.53;36.57;95790.72;4972576;28;9185;-42
2024/01/31 07:12:31;;;;;;;;;;;;;;;26.51;37.07;95793.22;4997648;28;7421;-37
2024/01/31 07:15:25;;;;;;;;;;;;;;;26.52;37.08;95803.78;4991397;28;8707;-37
2024/01/31 07:18:06;;;;;;;;;;;;;;;26.51;37.24;95788.44;5009480;28;8699;-37
2024/01/31 07:20:51;;;;;;;;;;;;;;;26.53;37.13;95790.72;5055576;28;7285;-37
2024/01/31 07:23:20;;;;;;;;;;;;;;;26.53;37.58;95790.72;5049488;28;7263;-37
2024/01/31 07:25:46;;;;;;;;;;;;;;;26.52;37.26;95784.44;5070460;28;7235;-37
2024/01/31 07:28:44;;;;;;;;;;;;;;;26.52;37.19;95794.72;5048779;28;6979;-37
2024/01/31 07:31:26;;;;;;;;;;;;;;;26.51;37.56;95787.69;4975739;28;7016;-37
2024/01/31 07:34:05;;;;;;;;;;;;;;;26.53;37.36;95791.50;4975440;28;8893;-37
2024/01/31 07:36:30;;;;;;;;;;;;;;;26.53;37.20;95796.25;4992426;28;9323;-37
2024/01/31 07:38:57;;;;;;;;;;;;;;;26.50;37.74;95803.50;4977994;28;7008;-37
2024/01/31 07:41:23;;;;;;;;;;;;;;;26.53;37.53;95801.78;4968569;28;7231;-37
2024/01/31 07:43:49;;;;;;;;;;;;;;;26.58;37.33;95812.09;4955626;28;7247;-37
2024/01/31 07:46:30;;;;;;;;;;;;;;;26.58;37.16;95809.34;4967541;28;7131;-37
2024/01/31 07:49:09;;;;;;;;;;;;;;;26.56;37.14;95814.59;5002169;28;8845;-37
2024/01/31 07:51:45;;;;;;;;;;;;;;;26.59;37.40;95814.41;4958514;28;8708;-37
2024/01/31 07:54:30;;;;;;;;;;;;;;;26.59;36.84;95822.69;4972655;28;9115;-37
2024/01/31 07:57:05;;;;;;;;;;;;;;;26.55;36.97;95818.59;4992925;28;7202;-37
2024/01/31 07:59:31;;;;;;;;;;;;;;;26.56;37.06;95822.88;4985806;28;9089;-37
2024/01/31 08:01:57;;;;;;;;;;;;;;;26.58;36.49;95820.38;4999934;28;9072;-37
2024/01/31 08:04:25;;;;;;;;;;;;;;;26.57;36.57;95825.16;4987335;28;7154;-37
2024/01/31 08:06:51;;;;;;;;;;;;;;;26.55;36.98;95821.38;5041977;28;7115;-37
2024/01/31 08:09:46;;;;;;;;;;;;;;;26.61;36.79;95824.94;5067344;28;7494;-37
2024/01/31 08:12:12;;;;;;;;;;;;;;;26.58;36.64;95820.38;5051427;28;7396;-37
2024/01/31 08:14:44;;;;;;;;;;;;;;;26.57;37.12;95824.41;5042512;28;9035;-37
2024/01/31 08:17:29;;;;;;;;;;;;;;;26.58;37.09;95817.63;5057207;28;8895;-37
2024/01/31 08:19:59;;;;;;;;;;;;;;;26.59;37.02;95821.91;5076263;28;8821;-37
2024/01/31 08:22:25;;;;;;;;;;;;;;;26.59;37.00;95816.38;5063905;28;7318;-37
2024/01/31 08:24:51;;;;;;;;;;;;;;;26.61;36.55;95816.66;5062387;28;6956;-37
2024/01/31 08:27:18;;;;;;;;;;;;;;;26.62;36.55;95802.38;5043040;28;7543;-37
2024/01/31 08:29:45;;;;;;;;;;;;;;;26.63;35.90;95819.69;5059967;28;7404;-37
2024/01/31 08:32:22;;;;;;;;;;;;;;;26.63;36.12;95817.69;5054104;28;7260;-37
2024/01/31 08:35:07;;;;;;;;;;;;;;;26.60;36.13;95812.41;5054861;28;7014;-37
2024/01/31 08:37:35;;;;;;;;;;;;;;;26.62;35.81;95809.91;5089896;28;7009;-37
2024/01/31 08:40:21;;;;;;;;;;;;;;;26.60;35.24;95812.41;5039529;28;7281;-37
2024/01/31 08:43:18;;;;;;;;;;;;;;;26.61;34.95;95802.88;5055622;28;7214;-37
2024/01/31 08:45:45;;;;;;;;;;;;;;;26.61;35.29;95819.41;4999745;28;7838;-37
2024/01/31 08:48:24;;;;;;;;;;;;;;;26.60;35.52;95804.84;4980392;28;7046;-37
2024/01/31 08:51:02;;;;;;;;;;;;;;;26.64;35.49;95804.66;4992153;28;7193;-37
2024/01/31 08:53:44;;;;;;;;;;;;;;;26.63;35.39;95811.41;4992012;28;6939;-37
2024/01/31 08:56:20;;;;;;;;;;;;;;;26.61;35.61;95811.16;4998693;28;9047;-37
2024/01/31 08:58:57;;;;;;;;;;;;;;;26.58;35.40;95810.09;4968241;28;7357;-37
2024/01/31 09:01:49;;;;;;;;;;;;;;;26.63;35.35;95812.19;4968276;28;7087;-37
2024/01/31 09:04:15;;;;;;;;;;;;;;;26.65;35.19;95809.69;4979366;28;9082;-37
2024/01/31 09:07:00;;;;;;;;;;;;;;;26.64;35.37;95796.38;4996113;28;9309;-37
2024/01/31 09:09:27;;;;;;;;;;;;;;;26.62;35.70;95790.59;4980905;28;7444;-37
2024/01/31 09:11:55;;;;;;;;;;;;;;;26.63;35.37;95790.09;4983093;28;7147;-37
2024/01/31 09:14:21;;;;;;;;;;;;;;;26.64;35.38;95785.34;4999870;28;7243;-37
2024/01/31 09:16:47;;;;;;;;;;;;;;;26.66;35.17;95789.16;4982765;28;8337;-37
2024/01/31 09:19:13;;;;;;;;;;;;;;;26.63;35.63;95787.34;5005072;28;7068;-37
2024/01/31 09:21:39;;;;;;;;;;;;;;;26.67;35.75;95781.59;5014752;28;7148;-37
2024/01/31 09:24:06;;;;;;;;;;;;;;;26.63;35.49;95776.31;5053316;28;7210;-37
2024/01/31 09:26:34;;;;;;;;;;;;;;;26.66;35.45;95780.09;5038222;28;7005;-37
2024/01/31 09:29:00;;;;;;;;;;;;;;;26.65;35.32;95771.06;5075596;28;9065;-37
2024/01/31 09:32:14;;;;;;;;;;;;;;;26.65;35.38;95779.34;5075287;28;6993;-37
2024/01/31 09:34:42;;;;;;;;;;;;;;;26.66;35.70;95775.34;4958972;28;8776;-38
2024/01/31 09:37:19;;;;;;;;;;;;;;;26.68;35.66;95777.63;4989966;28;7224;-38
2024/01/31 09:39:48;;;;;;;;;;;;;;;26.70;35.21;95780.66;4978329;28;9179;-37
2024/01/31 09:42:15;;;;;;;;;;;;;;;26.69;35.15;95776.34;4970614;28;6987;-37
2024/01/31 09:44:58;;;;;;;;;;;;;;;26.67;35.49;95773.31;4990588;28;7390;-37
2024/01/31 09:47:38;;;;;;;;;;;;;;;26.69;34.93;95782.63;4995152;28;7341;-38
2024/01/31 09:50:13;;;;;;;;;;;;;;;26.69;35.27;95777.13;5006603;28;7075;-37
2024/01/31 09:52:57;;;;;;;;;;;;;;;26.67;35.17;95762.28;5011462;28;7534;-37
2024/01/31 09:55:44;;;;;;;;;;;;;;;26.70;35.54;95764.09;4991701;28;8430;-38
2024/01/31 09:58:18;;;;;;;;;;;;;;;26.69;34.77;95759.78;4999255;28;7055;-38
2024/01/31 10:01:03;;;;;;;;;;;;;;;26.70;35.65;95764.09;5013009;28;8552;-37
2024/01/31 10:03:31;;;;;;;;;;;;;;;26.70;35.39;95755.81;4989666;28;6983;-37
2024/01/31 10:06:27;;;;;;;;;;;;;;;26.70;35.46;95761.31;5011598;28;9208;-40
2024/01/31 10:08:57;;;;;;;;;;;;;;;26.69;35.40;95757.03;5004432;28;7127;-37
2024/01/31 10:12:03;;;;;;;;;;;;;;;26.70;35.54;95764.09;5015864;28;9346;-37
2024/01/31 10:14:55;;;;;;;;;;;;;;;26.71;35.44;95763.59;5048068;28;7212;-37
2024/01/31 10:17:22;;;;;;;;;;;;;;;26.71;35.37;95762.81;5048420;28;7394;-37
2024/01/31 10:20:10;;;;;;;;;;;;;;;26.70;35.46;95755.81;5066186;28;6990;-38
2024/01/31 10:22:41;;;;;;;;;;;;;;;26.74;35.33;95759.91;5063087;28;9052;-38
2024/01/31 10:25:08;;;;;;;;;;;;;;;26.73;35.69;95754.88;5052779;28;7202;-37
2024/01/31 10:27:40;;;;;;;;;;;;;;;26.73;35.28;95749.34;5059180;28;9159;-37
2024/01/31 10:30:08;;;;;;;;;;;;;;;26.76;34.87;95754.66;5047323;28;7257;-37
2024/01/31 10:32:41;;;;;;;;;;;;;;;26.75;35.52;95747.59;5076358;28;9035;-38
2024/01/31 10:35:21;;;;;;;;;;;;;;;26.77;35.36;95744.38;5051325;28;7001;-38
2024/01/31 10:37:50;;;;;;;;;;;;;;;26.79;35.71;95753.69;5043224;28;9063;-37
2024/01/31 10:40:33;;;;;;;;;;;;;;;26.79;35.40;95745.41;5058807;28;6990;-57
2024/01/31 10:43:21;;;;;;;;;;;;;;;26.80;35.09;95740.63;5056140;28;7088;-57
2024/01/31 10:45:48;;;;;;;;;;;;;;;26.77;35.28;95739.59;5039591;28;7308;-57
2024/01/31 10:48:20;;;;;;;;;;;;;;;26.80;35.02;95743.38;5047442;28;7612;-57
2024/01/31 10:50:47;;;;;;;;;;;;;;;26.80;34.97;95732.34;5059746;28;7229;-57
2024/01/31 10:53:17;;;;;;;;;;;;;;;26.79;35.32;95725.31;5069647;28;7280;-57
2024/01/31 10:56:03;;;;;;;;;;;;;;;26.83;35.58;95726.63;5052869;28;8176;-57
2024/01/31 10:58:36;;;;;;;;;;;;;;;26.84;35.27;95721.84;5053822;28;7261;-54
2024/01/31 11:01:03;;;;;;;;;;;;;;;26.84;35.51;95728.13;5065279;28;7075;-57
2024/01/31 11:03:34;;;;;;;;;;;;;;;26.87;36.03;95716.13;5051228;28;6997;-57
2024/01/31 11:06:03;;;;;;;;;;;;;;;26.88;35.37;95711.34;5063259;28;7924;-57
2024/01/31 11:08:41;;;;;;;;;;;;;;;26.83;35.75;95701.78;5070589;28;7441;-57
2024/01/31 11:11:14;;;;;;;;;;;;;;;26.88;35.23;95705.84;5053641;28;7350;-57
2024/01/31 11:14:11;;;;;;;;;;;;;;;26.90;35.52;95719.91;5047034;28;6996;-57
2024/01/31 11:16:47;;;;;;;;;;;;;;;26.91;36.00;95721.41;5053278;28;7245;-57
2024/01/31 11:19:24;;;;;;;;;;;;;;;26.90;35.76;95723.41;5042487;28;7236;-57
2024/01/31 11:21:52;;;;;;;;;;;;;;;26.89;35.93;95715.63;5039821;28;9082;-57
2024/01/31 11:24:23;;;;;;;;;;;;;;;26.89;36.31;95718.38;5058535;28;7407;-57
2024/01/31 11:26:51;;;;;;;;;;;;;;;26.87;35.82;95713.34;5046473;28;7078;-56
2024/01/31 11:29:17;;;;;;;;;;;;;;;26.88;35.94;95711.34;5041795;28;7264;-57
2024/01/31 11:31:45;;;;;;;;;;;;;;;26.87;36.03;95705.06;5059623;28;7519;-57
2024/01/31 11:34:12;;;;;;;;;;;;;;;26.89;35.82;95710.09;5066208;28;7267;-56
2024/01/31 11:36:52;;;;;;;;;;;;;;;26.89;35.99;95712.84;5065062;28;7232;-58
2024/01/31 11:39:29;;;;;;;;;;;;;;;26.89;35.86;95713.63;5050031;28;7325;-58
2024/01/31 11:42:26;;;;;;;;;;;;;;;26.88;36.49;95708.59;5064832;28;7257;-58
2024/01/31 11:45:04;;;;;;;;;;;;;;;26.86;36.30;95709.06;4972887;28;7349;-58
2024/01/31 11:47:55;;;;;;;;;;;;;;;26.87;36.17;95707.84;4991898;28;7266;-58
2024/01/31 11:50:29;;;;;;;;;;;;;;;26.89;36.44;95696.28;4989262;28;7085;-40
2024/01/31 11:53:01;;;;;;;;;;;;;;;26.88;36.87;95694.78;4975087;28;9140;-40
2024/01/31 11:55:29;;;;;;;;;;;;;;;26.85;36.31;95685.47;4974499;28;8613;-40
2024/01/31 11:57:59;;;;;;;;;;;;;;;26.89;36.38;95690.78;4993210;28;7695;-40
2024/01/31 12:00:27;;;;;;;;;;;;;;;26.90;36.44;95679.22;4987686;28;7084;-40
2024/01/31 12:03:23;;;;;;;;;;;;;;;26.92;36.45;95666.97;5003185;28;6983;-39
2024/01/31 12:06:04;;;;;;;;;;;;;;;26.88;36.70;95653.38;4982799;28;7316;-39
2024/01/31 12:08:45;;;;;;;;;;;;;;;26.89;37.13;95652.13;5001037;28;9277;-40
2024/01/31 12:11:17;;;;;;;;;;;;;;;26.94;37.22;95656.19;4991671;28;7282;-39
2024/01/31 12:13:46;;;;;;;;;;;;;;;26.95;36.66;95652.91;4971567;28;9093;-41
2024/01/31 12:16:13;;;;;;;;;;;;;;;26.92;37.30;95651.16;4990043;28;8767;-40
2024/01/31 12:19:27;;;;;;;;;;;;;;;26.93;37.17;95658.19;4978584;28;7266;-40
2024/01/31 12:22:08;;;;;;;;;;;;;;;26.94;36.99;95659.69;4990720;28;7270;-43
2024/01/31 12:24:34;;;;;;;;;;;;;;;26.95;37.04;95661.19;5021391;28;9470;-40
2024/01/31 12:27:00;;;;;;;;;;;;;;;26.98;36.89;95651.19;5005525;28;8502;-40
2024/01/31 12:29:26;;;;;;;;;;;;;;;26.99;37.25;95639.63;5012652;28;9390;-39
2024/01/31 12:31:54;;;;;;;;;;;;;;;27.04;36.94;95635.41;4995710;28;6971;-39
2024/01/31 12:34:20;;;;;;;;;;;;;;;27.01;36.95;95626.13;4998003;28;7153;-39
2024/01/31 12:37:23;;;;;;;;;;;;;;;27.03;36.78;95629.16;4998912;28;9217;-40
2024/01/31 12:40:10;;;;;;;;;;;;;;;27.04;36.65;95632.66;5009000;28;8248;-40
2024/01/31 12:42:47;;;;;;;;;;;;;;;27.06;36.56;95627.41;5016360;28;8312;-39
2024/01/31 12:45:12;;;;;;;;;;;;;;;27.09;36.37;95624.41;5003016;28;7172;-40
2024/01/31 12:47:49;;;;;;;;;;;;;;;27.10;36.48;95616.91;4998727;28;7882;-40
2024/01/31 12:50:17;;;;;;;;;;;;;;;27.11;36.38;95610.88;5003658;28;7115;-42
2024/01/31 12:53:02;;;;;;;;;;;;;;;27.13;36.26;95602.84;5029469;28;9463;-39
2024/01/31 12:56:06;;;;;;;;;;;;;;;27.12;36.56;95604.09;4984935;28;7236;-39
2024/01/31 12:58:53;;;;;;;;;;;;;;;27.14;36.04;95596.09;4984301;28;8472;-40
2024/01/31 13:01:20;;;;;;;;;;;;;;;27.10;35.62;95589.28;4987221;28;6993;-43
2024/01/31 13:04:02;;;;;;;;;;;;;;;27.16;36.08;95593.59;4982222;28;7696;-43
2024/01/31 13:06:39;;;;;;;;;;;;;;;27.13;36.38;95589.03;4981578;28;7454;-41
2024/01/31 13:09:06;;;;;;;;;;;;;;;27.19;36.28;95597.34;4972319;28;7651;-41
2024/01/31 13:12:01;;;;;;;;;;;;;;;27.19;36.17;95591.84;4974414;28;9096;-41
2024/01/31 13:14:36;;;;;;;;;;;;;;;27.23;36.28;95584.09;4956410;28;6995;-41
2024/01/31 13:17:15;;;;;;;;;;;;;;;27.26;36.44;95586.63;4957193;28;9146;-43
2024/01/31 13:19:51;;;;;;;;;;;;;;;27.28;36.08;95586.88;4952801;28;8758;-41
2024/01/31 13:22:28;;;;;;;;;;;;;;;27.31;36.46;95585.91;4952724;28;7186;-41
2024/01/31 13:24:54;;;;;;;;;;;;;;;27.31;36.09;95583.13;4959120;28;9012;-42
2024/01/31 13:27:23;;;;;;;;;;;;;;;27.34;36.63;95584.16;4974900;28;9491;-41
2024/01/31 13:29:49;;;;;;;;;;;;;;;27.36;36.35;95585.19;4954053;28;8713;-41
2024/01/31 13:32:15;;;;;;;;;;;;;;;27.36;36.11;95585.19;4974579;28;7626;-41
2024/01/31 13:34:43;;;;;;;;;;;;;;;27.39;36.04;95589.75;4994010;28;9265;-41
2024/01/31 13:37:12;;;;;;;;;;;;;;;27.39;36.25;95589.75;4969595;28;7081;-42
2024/01/31 13:39:38;;;;;;;;;;;;;;;27.43;36.04;95581.97;4987304;28;7364;-41